sensor_id;sensor_type;location;lat;lon;timestamp;temperature;humidity
34279;DHT22;20538;51.528;9.942;2022-12-18T00:01:12;-9.90;99.90
34279;DHT22;20538;51.528;9.942;2022-12-18T00:03:38;-9.90;99.90
34279;DHT22;20538;51.528;9.942;2022-12-18T00:06:04;-9.90;99.90
34279;DHT22;20538;51.528;9.942;2022-12-18T00:08:30;-9.90;99.90
34279;DHT22;20538;51.528;9.942;2022-12-18T00:10:55;-9.90;99.90
34279;DHT22;20538;51.528;9.942;2022-12-18T00:13:28;-9.90;99.90
34279;DHT22;20538;51.528;9.942;2022-12-18T00:15:53;-9.90;99.90
34279;DHT22;20538;51.528;9.942;2022-12-18T00:18:19;-9.80;99.90
34279;DHT22;20538;51.528;9.942;2022-12-18T00:20:45;-9.90;99.90
34279;DHT22;20538;51.528;9.942;2022-12-18T00:23:10;-9.90;99.90
34279;DHT22;20538;51.528;9.942;2022-12-18T00:25:36;-9.90;99.90
34279;DHT22;20538;51.528;9.942;2022-12-18T00:28:03;-10.00;99.90
34279;DHT22;20538;51.528;9.942;2022-12-18T00:30:28;-9.90;99.90
34279;DHT22;20538;51.528;9.942;2022-12-18T00:32:54;-9.90;99.90
34279;DHT22;20538;51.528;9.942;2022-12-18T00:35:20;-9.90;99.90
34279;DHT22;20538;51.528;9.942;2022-12-18T00:37:46;-10.00;99.90
34279;DHT22;20538;51.528;9.942;2022-12-18T00:40:12;-9.90;99.90
34279;DHT22;20538;51.528;9.942;2022-12-18T00:42:37;-9.90;99.90
34279;DHT22;20538;51.528;9.942;2022-12-18T00:45:23;-10.00;99.90
34279;DHT22;20538;51.528;9.942;2022-12-18T00:47:48;-10.00;99.90
34279;DHT22;20538;51.528;9.942;2022-12-18T00:50:14;-10.00;99.90
34279;DHT22;20538;51.528;9.942;2022-12-18T00:52:40;-9.90;99.90
34279;DHT22;20538;51.528;9.942;2022-12-18T00:55:06;-9.90;99.90
34279;DHT22;20538;51.528;9.942;2022-12-18T00:57:31;-9.90;99.90
34279;DHT22;20538;51.528;9.942;2022-12-18T00:59:57;-10.00;99.90
34279;DHT22;20538;51.528;9.942;2022-12-18T01:02:23;-10.00;99.90
34279;DHT22;20538;51.528;9.942;2022-12-18T01:04:48;-10.00;99.90
34279;DHT22;20538;51.528;9.942;2022-12-18T01:07:14;-9.90;99.90
34279;DHT22;20538;51.528;9.942;2022-12-18T01:09:39;-10.00;99.90
34279;DHT22;20538;51.528;9.942;2022-12-18T01:12:05;-10.00;99.90
34279;DHT22;20538;51.528;9.942;2022-12-18T01:14:31;-10.00;99.90
34279;DHT22;20538;51.528;9.942;2022-12-18T01:16:57;-10.00;99.90
34279;DHT22;20538;51.528;9.942;2022-12-18T01:19:22;-10.00;99.90
34279;DHT22;20538;51.528;9.942;2022-12-18T01:21:49;-10.00;99.90
34279;DHT22;20538;51.528;9.942;2022-12-18T01:24:14;-10.10;99.90
34279;DHT22;20538;51.528;9.942;2022-12-18T01:26:40;-10.10;99.90
34279;DHT22;20538;51.528;9.942;2022-12-18T01:29:06;-10.10;99.90
34279;DHT22;20538;51.528;9.942;2022-12-18T01:31:35;-10.20;99.90
34279;DHT22;20538;51.528;9.942;2022-12-18T01:34:01;-10.20;99.90
34279;DHT22;20538;51.528;9.942;2022-12-18T01:36:30;-10.20;99.90
34279;DHT22;20538;51.528;9.942;2022-12-18T01:38:59;-10.10;99.90
34279;DHT22;20538;51.528;9.942;2022-12-18T01:41:27;-10.20;99.90
34279;DHT22;20538;51.528;9.942;2022-12-18T01:50:21;-10.30;99.90
34279;DHT22;20538;51.528;9.942;2022-12-18T01:52:51;-10.20;99.90
34279;DHT22;20538;51.528;9.942;2022-12-18T01:55:20;-10.10;99.90
34279;DHT22;20538;51.528;9.942;2022-12-18T01:57:48;-10.10;99.90
34279;DHT22;20538;51.528;9.942;2022-12-18T02:00:17;-10.20;99.90
34279;DHT22;20538;51.528;9.942;2022-12-18T02:02:45;-10.20;99.90
34279;DHT22;20538;51.528;9.942;2022-12-18T02:05:15;-10.40;99.90
34279;DHT22;20538;51.528;9.942;2022-12-18T02:10:33;-10.40;99.90
34279;DHT22;20538;51.528;9.942;2022-12-18T02:18:27;-10.30;99.90
34279;DHT22;20538;51.528;9.942;2022-12-18T02:21:05;-10.40;99.90
34279;DHT22;20538;51.528;9.942;2022-12-18T02:24:01;-10.40;99.90
34279;DHT22;20538;51.528;9.942;2022-12-18T02:26:47;-10.50;99.90
34279;DHT22;20538;51.528;9.942;2022-12-18T02:29:31;-10.50;99.90
34279;DHT22;20538;51.528;9.942;2022-12-18T02:31:59;-10.50;99.90
34279;DHT22;20538;51.528;9.942;2022-12-18T02:34:29;-10.50;99.90
34279;DHT22;20538;51.528;9.942;2022-12-18T02:36:57;-10.50;99.90
34279;DHT22;20538;51.528;9.942;2022-12-18T02:39:25;-10.50;99.90
34279;DHT22;20538;51.528;9.942;2022-12-18T02:41:52;-10.50;99.90
34279;DHT22;20538;51.528;9.942;2022-12-18T02:44:18;-10.50;99.90
34279;DHT22;20538;51.528;9.942;2022-12-18T02:46:46;-10.60;99.90
34279;DHT22;20538;51.528;9.942;2022-12-18T02:49:54;-10.60;99.90
34279;DHT22;20538;51.528;9.942;2022-12-18T02:57:58;-10.50;99.90
34279;DHT22;20538;51.528;9.942;2022-12-18T03:05:51;-10.60;99.90
34279;DHT22;20538;51.528;9.942;2022-12-18T03:08:24;-10.70;99.90
34279;DHT22;20538;51.528;9.942;2022-12-18T03:13:51;-10.60;99.90
34279;DHT22;20538;51.528;9.942;2022-12-18T03:16:27;-10.60;99.90
34279;DHT22;20538;51.528;9.942;2022-12-18T03:19:06;-10.70;99.90
34279;DHT22;20538;51.528;9.942;2022-12-18T03:21:42;-10.70;99.90
34279;DHT22;20538;51.528;9.942;2022-12-18T03:24:09;-10.60;99.90
34279;DHT22;20538;51.528;9.942;2022-12-18T03:26:40;-10.70;99.90
34279;DHT22;20538;51.528;9.942;2022-12-18T03:29:14;-10.70;99.90
34279;DHT22;20538;51.528;9.942;2022-12-18T03:31:47;-10.70;99.90
34279;DHT22;20538;51.528;9.942;2022-12-18T03:34:19;-10.80;99.90
34279;DHT22;20538;51.528;9.942;2022-12-18T03:36:47;-10.80;99.90
34279;DHT22;20538;51.528;9.942;2022-12-18T03:39:13;-10.70;99.90
34279;DHT22;20538;51.528;9.942;2022-12-18T03:41:44;-10.70;99.90
34279;DHT22;20538;51.528;9.942;2022-12-18T03:47:26;-10.60;99.90
34279;DHT22;20538;51.528;9.942;2022-12-18T03:50:19;-10.70;99.90
34279;DHT22;20538;51.528;9.942;2022-12-18T03:55:19;-10.70;99.90
34279;DHT22;20538;51.528;9.942;2022-12-18T03:57:48;-10.80;99.90
34279;DHT22;20538;51.528;9.942;2022-12-18T04:00:18;-10.60;99.90
34279;DHT22;20538;51.528;9.942;2022-12-18T04:02:48;-10.70;99.90
34279;DHT22;20538;51.528;9.942;2022-12-18T04:05:17;-10.80;99.90
34279;DHT22;20538;51.528;9.942;2022-12-18T04:07:45;-10.90;99.90
34279;DHT22;20538;51.528;9.942;2022-12-18T04:10:12;-10.90;99.90
34279;DHT22;20538;51.528;9.942;2022-12-18T04:12:39;-10.90;99.90
34279;DHT22;20538;51.528;9.942;2022-12-18T04:15:05;-11.00;99.90
34279;DHT22;20538;51.528;9.942;2022-12-18T04:17:31;-11.00;99.90
34279;DHT22;20538;51.528;9.942;2022-12-18T04:19:57;-11.00;99.90
34279;DHT22;20538;51.528;9.942;2022-12-18T04:22:22;-11.10;99.90
34279;DHT22;20538;51.528;9.942;2022-12-18T04:24:48;-11.10;99.90
34279;DHT22;20538;51.528;9.942;2022-12-18T04:27:13;-11.10;99.90
34279;DHT22;20538;51.528;9.942;2022-12-18T04:29:39;-11.10;99.90
34279;DHT22;20538;51.528;9.942;2022-12-18T04:32:05;-11.10;99.90
34279;DHT22;20538;51.528;9.942;2022-12-18T04:34:30;-11.10;99.90
34279;DHT22;20538;51.528;9.942;2022-12-18T04:36:56;-11.10;99.90
34279;DHT22;20538;51.528;9.942;2022-12-18T04:39:21;-11.10;99.90
34279;DHT22;20538;51.528;9.942;2022-12-18T04:41:47;-11.00;99.90
34279;DHT22;20538;51.528;9.942;2022-12-18T04:44:13;-11.00;99.90
34279;DHT22;20538;51.528;9.942;2022-12-18T04:46:39;-11.00;99.90
34279;DHT22;20538;51.528;9.942;2022-12-18T04:49:04;-11.00;99.90
34279;DHT22;20538;51.528;9.942;2022-12-18T04:51:30;-11.00;99.90
34279;DHT22;20538;51.528;9.942;2022-12-18T04:53:55;-11.10;99.90
34279;DHT22;20538;51.528;9.942;2022-12-18T04:56:22;-11.10;99.90
34279;DHT22;20538;51.528;9.942;2022-12-18T04:58:47;-11.00;99.90
34279;DHT22;20538;51.528;9.942;2022-12-18T05:01:15;-11.00;99.90
34279;DHT22;20538;51.528;9.942;2022-12-18T05:03:42;-11.10;99.90
34279;DHT22;20538;51.528;9.942;2022-12-18T05:06:08;-11.10;99.90
34279;DHT22;20538;51.528;9.942;2022-12-18T05:08:34;-11.10;99.90
34279;DHT22;20538;51.528;9.942;2022-12-18T05:11:04;-11.10;99.90
34279;DHT22;20538;51.528;9.942;2022-12-18T05:13:34;-11.00;99.90
34279;DHT22;20538;51.528;9.942;2022-12-18T05:16:00;-11.00;99.90
34279;DHT22;20538;51.528;9.942;2022-12-18T05:18:26;-11.00;99.90
34279;DHT22;20538;51.528;9.942;2022-12-18T05:20:53;-11.00;99.90
34279;DHT22;20538;51.528;9.942;2022-12-18T05:23:19;-10.90;99.90
34279;DHT22;20538;51.528;9.942;2022-12-18T05:28:17;-11.00;99.90
34279;DHT22;20538;51.528;9.942;2022-12-18T05:30:49;-11.00;99.90
34279;DHT22;20538;51.528;9.942;2022-12-18T05:33:16;-11.00;99.90
34279;DHT22;20538;51.528;9.942;2022-12-18T05:35:41;-11.00;99.90
34279;DHT22;20538;51.528;9.942;2022-12-18T05:38:07;-10.90;99.90
34279;DHT22;20538;51.528;9.942;2022-12-18T05:40:33;-10.90;99.90
34279;DHT22;20538;51.528;9.942;2022-12-18T05:42:58;-10.80;99.90
34279;DHT22;20538;51.528;9.942;2022-12-18T05:45:24;-10.90;99.90
34279;DHT22;20538;51.528;9.942;2022-12-18T05:47:49;-11.00;99.90
34279;DHT22;20538;51.528;9.942;2022-12-18T05:50:15;-11.00;99.90
34279;DHT22;20538;51.528;9.942;2022-12-18T05:52:41;-11.10;99.90
34279;DHT22;20538;51.528;9.942;2022-12-18T05:55:07;-11.10;99.90
34279;DHT22;20538;51.528;9.942;2022-12-18T05:57:33;-11.00;99.90
34279;DHT22;20538;51.528;9.942;2022-12-18T05:59:58;-11.00;99.90
34279;DHT22;20538;51.528;9.942;2022-12-18T06:02:24;-11.10;99.90
34279;DHT22;20538;51.528;9.942;2022-12-18T06:04:49;-11.10;99.90
34279;DHT22;20538;51.528;9.942;2022-12-18T06:07:15;-11.10;99.90
34279;DHT22;20538;51.528;9.942;2022-12-18T06:09:41;-11.10;99.90
34279;DHT22;20538;51.528;9.942;2022-12-18T06:12:06;-11.10;99.90
34279;DHT22;20538;51.528;9.942;2022-12-18T06:14:32;-11.10;99.90
34279;DHT22;20538;51.528;9.942;2022-12-18T06:16:57;-11.00;99.90
34279;DHT22;20538;51.528;9.942;2022-12-18T06:19:23;-11.10;99.90
34279;DHT22;20538;51.528;9.942;2022-12-18T06:21:49;-11.10;99.90
34279;DHT22;20538;51.528;9.942;2022-12-18T06:24:15;-11.00;99.90
34279;DHT22;20538;51.528;9.942;2022-12-18T06:26:41;-11.00;99.90
34279;DHT22;20538;51.528;9.942;2022-12-18T06:29:06;-11.00;99.90
34279;DHT22;20538;51.528;9.942;2022-12-18T06:31:32;-11.10;99.90
34279;DHT22;20538;51.528;9.942;2022-12-18T06:33:58;-11.10;99.90
34279;DHT22;20538;51.528;9.942;2022-12-18T06:36:23;-10.90;99.90
34279;DHT22;20538;51.528;9.942;2022-12-18T06:38:49;-10.80;99.90
34279;DHT22;20538;51.528;9.942;2022-12-18T06:41:17;-10.90;99.90
34279;DHT22;20538;51.528;9.942;2022-12-18T06:43:44;-10.90;99.90
34279;DHT22;20538;51.528;9.942;2022-12-18T06:46:10;-11.00;99.90
34279;DHT22;20538;51.528;9.942;2022-12-18T06:48:36;-10.90;99.90
34279;DHT22;20538;51.528;9.942;2022-12-18T06:51:03;-11.00;99.90
34279;DHT22;20538;51.528;9.942;2022-12-18T06:53:29;-11.00;99.90
34279;DHT22;20538;51.528;9.942;2022-12-18T06:56:02;-11.00;99.90
34279;DHT22;20538;51.528;9.942;2022-12-18T06:58:27;-11.00;99.90
34279;DHT22;20538;51.528;9.942;2022-12-18T07:00:53;-10.90;99.90
34279;DHT22;20538;51.528;9.942;2022-12-18T07:03:19;-10.90;99.90
34279;DHT22;20538;51.528;9.942;2022-12-18T07:05:44;-11.00;99.90
34279;DHT22;20538;51.528;9.942;2022-12-18T07:08:10;-10.90;99.90
34279;DHT22;20538;51.528;9.942;2022-12-18T07:10:42;-10.90;99.90
34279;DHT22;20538;51.528;9.942;2022-12-18T07:13:08;-10.90;99.90
34279;DHT22;20538;51.528;9.942;2022-12-18T07:15:34;-10.90;99.90
34279;DHT22;20538;51.528;9.942;2022-12-18T07:18:00;-11.00;99.90
34279;DHT22;20538;51.528;9.942;2022-12-18T07:20:25;-10.90;99.90
34279;DHT22;20538;51.528;9.942;2022-12-18T07:22:51;-10.70;99.90
34279;DHT22;20538;51.528;9.942;2022-12-18T07:25:17;-10.70;99.90
34279;DHT22;20538;51.528;9.942;2022-12-18T07:27:42;-10.70;99.90
34279;DHT22;20538;51.528;9.942;2022-12-18T07:30:08;-10.70;99.90
34279;DHT22;20538;51.528;9.942;2022-12-18T07:32:34;-10.60;99.90
34279;DHT22;20538;51.528;9.942;2022-12-18T07:35:00;-10.60;99.90
34279;DHT22;20538;51.528;9.942;2022-12-18T07:37:25;-10.60;99.90
34279;DHT22;20538;51.528;9.942;2022-12-18T07:39:51;-10.70;99.90
34279;DHT22;20538;51.528;9.942;2022-12-18T07:42:17;-10.70;99.90
34279;DHT22;20538;51.528;9.942;2022-12-18T07:44:58;-10.70;99.90
34279;DHT22;20538;51.528;9.942;2022-12-18T07:47:24;-10.60;99.90
34279;DHT22;20538;51.528;9.942;2022-12-18T07:49:50;-10.60;99.90
34279;DHT22;20538;51.528;9.942;2022-12-18T07:52:15;-10.50;99.90
34279;DHT22;20538;51.528;9.942;2022-12-18T07:54:41;-10.50;99.90
34279;DHT22;20538;51.528;9.942;2022-12-18T07:57:07;-10.50;99.90
34279;DHT22;20538;51.528;9.942;2022-12-18T07:59:34;-10.40;99.90
34279;DHT22;20538;51.528;9.942;2022-12-18T08:01:59;-10.40;99.90
34279;DHT22;20538;51.528;9.942;2022-12-18T08:04:25;-10.40;99.90
34279;DHT22;20538;51.528;9.942;2022-12-18T08:06:51;-10.30;99.90
34279;DHT22;20538;51.528;9.942;2022-12-18T08:09:17;-10.30;99.90
34279;DHT22;20538;51.528;9.942;2022-12-18T08:11:42;-10.30;99.90
34279;DHT22;20538;51.528;9.942;2022-12-18T08:14:08;-10.20;99.90
34279;DHT22;20538;51.528;9.942;2022-12-18T08:16:35;-10.20;99.90
34279;DHT22;20538;51.528;9.942;2022-12-18T08:19:00;-10.20;99.90
34279;DHT22;20538;51.528;9.942;2022-12-18T08:21:29;-10.10;99.90
34279;DHT22;20538;51.528;9.942;2022-12-18T08:24:00;-10.10;99.90
34279;DHT22;20538;51.528;9.942;2022-12-18T08:26:28;-10.10;99.90
34279;DHT22;20538;51.528;9.942;2022-12-18T08:28:55;-10.10;99.90
34279;DHT22;20538;51.528;9.942;2022-12-18T08:31:22;-10.00;99.90
34279;DHT22;20538;51.528;9.942;2022-12-18T08:33:54;-10.00;99.90
34279;DHT22;20538;51.528;9.942;2022-12-18T08:36:20;-9.90;99.90
34279;DHT22;20538;51.528;9.942;2022-12-18T08:38:46;-9.90;99.90
34279;DHT22;20538;51.528;9.942;2022-12-18T08:41:14;-9.70;99.90
34279;DHT22;20538;51.528;9.942;2022-12-18T08:43:40;-9.60;99.90
34279;DHT22;20538;51.528;9.942;2022-12-18T08:46:26;-9.60;99.90
34279;DHT22;20538;51.528;9.942;2022-12-18T08:48:53;-9.40;99.90
34279;DHT22;20538;51.528;9.942;2022-12-18T08:51:20;-9.10;99.90
34279;DHT22;20538;51.528;9.942;2022-12-18T08:53:48;-8.70;99.90
34279;DHT22;20538;51.528;9.942;2022-12-18T08:56:14;-8.50;99.90
34279;DHT22;20538;51.528;9.942;2022-12-18T08:58:40;-8.00;99.90
34279;DHT22;20538;51.528;9.942;2022-12-18T09:01:08;-8.20;99.90
34279;DHT22;20538;51.528;9.942;2022-12-18T09:03:35;-8.40;99.90
34279;DHT22;20538;51.528;9.942;2022-12-18T09:06:01;-8.50;99.90
34279;DHT22;20538;51.528;9.942;2022-12-18T09:08:27;-8.50;99.90
34279;DHT22;20538;51.528;9.942;2022-12-18T09:10:52;-8.50;99.90
34279;DHT22;20538;51.528;9.942;2022-12-18T09:13:18;-8.40;99.90
34279;DHT22;20538;51.528;9.942;2022-12-18T09:15:49;-8.40;99.90
34279;DHT22;20538;51.528;9.942;2022-12-18T09:18:17;-8.30;99.90
34279;DHT22;20538;51.528;9.942;2022-12-18T09:20:49;-8.20;99.90
34279;DHT22;20538;51.528;9.942;2022-12-18T09:23:17;-8.20;99.90
34279;DHT22;20538;51.528;9.942;2022-12-18T09:25:43;-8.20;99.90
34279;DHT22;20538;51.528;9.942;2022-12-18T09:28:16;-8.10;99.90
34279;DHT22;20538;51.528;9.942;2022-12-18T09:30:44;-8.00;99.90
34279;DHT22;20538;51.528;9.942;2022-12-18T09:33:10;-7.90;99.90
34279;DHT22;20538;51.528;9.942;2022-12-18T09:35:36;-7.90;99.90
34279;DHT22;20538;51.528;9.942;2022-12-18T09:38:02;-7.90;99.90
34279;DHT22;20538;51.528;9.942;2022-12-18T09:40:34;-7.80;99.90
34279;DHT22;20538;51.528;9.942;2022-12-18T09:43:04;-7.60;99.90
34279;DHT22;20538;51.528;9.942;2022-12-18T09:45:42;-7.40;99.90
34279;DHT22;20538;51.528;9.942;2022-12-18T09:48:21;-7.30;99.90
34279;DHT22;20538;51.528;9.942;2022-12-18T09:50:50;-7.00;99.90
34279;DHT22;20538;51.528;9.942;2022-12-18T09:53:24;-6.90;99.90
34279;DHT22;20538;51.528;9.942;2022-12-18T09:55:52;-6.70;99.90
34279;DHT22;20538;51.528;9.942;2022-12-18T09:58:34;-6.60;99.90
34279;DHT22;20538;51.528;9.942;2022-12-18T10:01:01;-6.40;99.90
34279;DHT22;20538;51.528;9.942;2022-12-18T10:03:27;-6.40;99.90
34279;DHT22;20538;51.528;9.942;2022-12-18T10:06:07;-6.20;99.90
34279;DHT22;20538;51.528;9.942;2022-12-18T10:11:35;-6.00;99.90
34279;DHT22;20538;51.528;9.942;2022-12-18T10:22:52;-5.70;99.90
34279;DHT22;20538;51.528;9.942;2022-12-18T10:28:12;-5.40;99.90
34279;DHT22;20538;51.528;9.942;2022-12-18T10:30:42;-5.30;99.90
34279;DHT22;20538;51.528;9.942;2022-12-18T10:33:20;-5.10;99.90
34279;DHT22;20538;51.528;9.942;2022-12-18T10:35:49;-4.80;99.90
34279;DHT22;20538;51.528;9.942;2022-12-18T10:43:42;-4.40;99.90
34279;DHT22;20538;51.528;9.942;2022-12-18T10:48:40;-4.20;99.90
34279;DHT22;20538;51.528;9.942;2022-12-18T10:51:07;-4.20;99.90
34279;DHT22;20538;51.528;9.942;2022-12-18T10:53:35;-4.10;99.90
34279;DHT22;20538;51.528;9.942;2022-12-18T10:56:04;-4.10;99.90
34279;DHT22;20538;51.528;9.942;2022-12-18T10:58:32;-3.90;99.90
34279;DHT22;20538;51.528;9.942;2022-12-18T11:01:13;-3.80;99.90
34279;DHT22;20538;51.528;9.942;2022-12-18T11:03:43;-3.60;99.90
34279;DHT22;20538;51.528;9.942;2022-12-18T11:06:15;-3.30;99.90
34279;DHT22;20538;51.528;9.942;2022-12-18T11:08:42;-3.30;99.90
34279;DHT22;20538;51.528;9.942;2022-12-18T11:11:20;-3.20;99.90
34279;DHT22;20538;51.528;9.942;2022-12-18T11:14:05;-3.10;99.90
34279;DHT22;20538;51.528;9.942;2022-12-18T11:16:56;-3.00;99.90
34279;DHT22;20538;51.528;9.942;2022-12-18T11:19:26;-2.80;99.90
34279;DHT22;20538;51.528;9.942;2022-12-18T11:21:53;-2.70;99.90
34279;DHT22;20538;51.528;9.942;2022-12-18T11:26:51;-2.50;99.90
34279;DHT22;20538;51.528;9.942;2022-12-18T11:29:22;-2.40;99.90
34279;DHT22;20538;51.528;9.942;2022-12-18T11:31:48;-2.30;99.90
34279;DHT22;20538;51.528;9.942;2022-12-18T11:34:26;-2.10;99.90
34279;DHT22;20538;51.528;9.942;2022-12-18T11:36:53;-2.20;99.90
34279;DHT22;20538;51.528;9.942;2022-12-18T11:42:01;-2.10;99.90
34279;DHT22;20538;51.528;9.942;2022-12-18T11:44:50;-2.10;99.90
34279;DHT22;20538;51.528;9.942;2022-12-18T11:47:28;-2.00;99.90
34279;DHT22;20538;51.528;9.942;2022-12-18T11:50:00;-2.00;99.90
34279;DHT22;20538;51.528;9.942;2022-12-18T11:52:33;-1.90;99.90
34279;DHT22;20538;51.528;9.942;2022-12-18T11:55:10;-1.90;99.90
34279;DHT22;20538;51.528;9.942;2022-12-18T11:57:46;-1.90;99.90
34279;DHT22;20538;51.528;9.942;2022-12-18T12:00:19;-2.00;99.90
34279;DHT22;20538;51.528;9.942;2022-12-18T12:22:08;-2.20;99.90
34279;DHT22;20538;51.528;9.942;2022-12-18T12:30:28;-2.00;99.90
34279;DHT22;20538;51.528;9.942;2022-12-18T12:38:28;-1.70;99.90
34279;DHT22;20538;51.528;9.942;2022-12-18T12:41:05;-1.70;99.90
34279;DHT22;20538;51.528;9.942;2022-12-18T12:43:52;-1.70;99.90
34279;DHT22;20538;51.528;9.942;2022-12-18T12:46:21;-1.70;99.90
34279;DHT22;20538;51.528;9.942;2022-12-18T12:49:01;-1.60;99.90
34279;DHT22;20538;51.528;9.942;2022-12-18T12:51:40;-1.50;99.90
34279;DHT22;20538;51.528;9.942;2022-12-18T12:54:17;-1.50;99.90
34279;DHT22;20538;51.528;9.942;2022-12-18T13:04:27;-1.40;99.90
34279;DHT22;20538;51.528;9.942;2022-12-18T13:07:11;-1.40;99.90
34279;DHT22;20538;51.528;9.942;2022-12-18T13:13:17;-1.40;99.90
34279;DHT22;20538;51.528;9.942;2022-12-18T13:15:48;-1.50;99.90
34279;DHT22;20538;51.528;9.942;2022-12-18T13:18:16;-1.50;99.90
34279;DHT22;20538;51.528;9.942;2022-12-18T13:21:01;-1.50;99.90
34279;DHT22;20538;51.528;9.942;2022-12-18T13:23:36;-1.60;99.90
34279;DHT22;20538;51.528;9.942;2022-12-18T13:31:00;-1.60;99.90
34279;DHT22;20538;51.528;9.942;2022-12-18T13:38:46;-1.70;99.90
34279;DHT22;20538;51.528;9.942;2022-12-18T13:41:25;-1.80;99.90
34279;DHT22;20538;51.528;9.942;2022-12-18T13:44:11;-1.80;99.90
34279;DHT22;20538;51.528;9.942;2022-12-18T13:46:46;-1.90;99.90
34279;DHT22;20538;51.528;9.942;2022-12-18T13:51:44;-1.90;99.90
34279;DHT22;20538;51.528;9.942;2022-12-18T13:56:53;-1.90;99.90
34279;DHT22;20538;51.528;9.942;2022-12-18T13:59:25;-1.90;99.90
34279;DHT22;20538;51.528;9.942;2022-12-18T14:01:59;-1.90;99.90
34279;DHT22;20538;51.528;9.942;2022-12-18T14:04:30;-1.90;99.90
34279;DHT22;20538;51.528;9.942;2022-12-18T14:07:06;-1.90;99.90
34279;DHT22;20538;51.528;9.942;2022-12-18T14:09:43;-1.90;99.90
34279;DHT22;20538;51.528;9.942;2022-12-18T14:12:26;-1.90;99.90
34279;DHT22;20538;51.528;9.942;2022-12-18T14:18:55;-2.00;99.90
34279;DHT22;20538;51.528;9.942;2022-12-18T14:20:51;-2.00;99.90
34279;DHT22;20538;51.528;9.942;2022-12-18T14:23:38;-2.00;99.90
34279;DHT22;20538;51.528;9.942;2022-12-18T14:26:29;-2.00;99.90
34279;DHT22;20538;51.528;9.942;2022-12-18T14:29:25;-2.10;99.90
34279;DHT22;20538;51.528;9.942;2022-12-18T14:32:09;-2.10;99.90
34279;DHT22;20538;51.528;9.942;2022-12-18T14:34:36;-2.10;99.90
34279;DHT22;20538;51.528;9.942;2022-12-18T14:37:01;-2.20;99.90
34279;DHT22;20538;51.528;9.942;2022-12-18T14:39:27;-2.10;99.90
34279;DHT22;20538;51.528;9.942;2022-12-18T14:41:52;-2.20;99.90
34279;DHT22;20538;51.528;9.942;2022-12-18T14:44:18;-2.20;99.90
34279;DHT22;20538;51.528;9.942;2022-12-18T14:46:48;-2.10;99.90
34279;DHT22;20538;51.528;9.942;2022-12-18T14:49:30;-2.10;99.90
34279;DHT22;20538;51.528;9.942;2022-12-18T14:52:28;-2.10;99.90
34279;DHT22;20538;51.528;9.942;2022-12-18T14:54:56;-2.10;99.90
34279;DHT22;20538;51.528;9.942;2022-12-18T14:57:25;-2.10;99.90
34279;DHT22;20538;51.528;9.942;2022-12-18T14:59:55;-2.20;99.90
34279;DHT22;20538;51.528;9.942;2022-12-18T15:02:29;-2.20;99.90
34279;DHT22;20538;51.528;9.942;2022-12-18T15:05:04;-2.30;99.90
34279;DHT22;20538;51.528;9.942;2022-12-18T15:07:47;-2.30;99.90
34279;DHT22;20538;51.528;9.942;2022-12-18T15:10:31;-2.40;99.90
34279;DHT22;20538;51.528;9.942;2022-12-18T15:20:53;-2.30;99.90
34279;DHT22;20538;51.528;9.942;2022-12-18T15:26:07;-2.30;99.90
34279;DHT22;20538;51.528;9.942;2022-12-18T15:28:49;-2.30;99.90
34279;DHT22;20538;51.528;9.942;2022-12-18T15:36:17;-2.20;99.90
34279;DHT22;20538;51.528;9.942;2022-12-18T15:38:47;-2.20;99.90
34279;DHT22;20538;51.528;9.942;2022-12-18T15:41:18;-2.20;99.90
34279;DHT22;20538;51.528;9.942;2022-12-18T15:43:45;-2.30;99.90
34279;DHT22;20538;51.528;9.942;2022-12-18T15:46:15;-2.20;99.90
34279;DHT22;20538;51.528;9.942;2022-12-18T15:48:49;-2.20;99.90
34279;DHT22;20538;51.528;9.942;2022-12-18T15:53:42;-2.30;99.90
34279;DHT22;20538;51.528;9.942;2022-12-18T15:56:12;-2.20;99.90
34279;DHT22;20538;51.528;9.942;2022-12-18T15:58:57;-2.00;99.90
34279;DHT22;20538;51.528;9.942;2022-12-18T16:01:28;-2.10;99.90
34279;DHT22;20538;51.528;9.942;2022-12-18T16:03:54;-2.00;99.90
34279;DHT22;20538;51.528;9.942;2022-12-18T16:06:21;-2.00;99.90
34279;DHT22;20538;51.528;9.942;2022-12-18T16:08:46;-2.00;99.90
34279;DHT22;20538;51.528;9.942;2022-12-18T16:11:23;-2.00;99.90
34279;DHT22;20538;51.528;9.942;2022-12-18T16:14:32;-2.00;99.90
34279;DHT22;20538;51.528;9.942;2022-12-18T16:17:00;-2.00;99.90
34279;DHT22;20538;51.528;9.942;2022-12-18T16:19:27;-2.00;99.90
34279;DHT22;20538;51.528;9.942;2022-12-18T16:21:56;-2.00;99.90
34279;DHT22;20538;51.528;9.942;2022-12-18T16:24:25;-2.00;99.90
34279;DHT22;20538;51.528;9.942;2022-12-18T16:26:52;-2.10;99.90
34279;DHT22;20538;51.528;9.942;2022-12-18T16:29:19;-2.10;99.90
34279;DHT22;20538;51.528;9.942;2022-12-18T16:31:50;-2.10;99.90
34279;DHT22;20538;51.528;9.942;2022-12-18T16:36:46;-2.10;99.90
34279;DHT22;20538;51.528;9.942;2022-12-18T16:39:18;-2.10;99.90
34279;DHT22;20538;51.528;9.942;2022-12-18T16:41:49;-2.00;99.90
34279;DHT22;20538;51.528;9.942;2022-12-18T16:44:21;-2.10;99.90
34279;DHT22;20538;51.528;9.942;2022-12-18T16:46:47;-2.00;99.90
34279;DHT22;20538;51.528;9.942;2022-12-18T16:49:15;-2.10;99.90
34279;DHT22;20538;51.528;9.942;2022-12-18T16:51:41;-2.10;99.90
34279;DHT22;20538;51.528;9.942;2022-12-18T16:54:07;-2.00;99.90
34279;DHT22;20538;51.528;9.942;2022-12-18T16:56:36;-2.10;99.90
34279;DHT22;20538;51.528;9.942;2022-12-18T16:59:03;-2.10;99.90
34279;DHT22;20538;51.528;9.942;2022-12-18T17:01:31;-2.00;99.90
34279;DHT22;20538;51.528;9.942;2022-12-18T17:04:00;-2.00;99.90
34279;DHT22;20538;51.528;9.942;2022-12-18T17:06:30;-2.00;99.90
34279;DHT22;20538;51.528;9.942;2022-12-18T17:08:58;-2.00;99.90
34279;DHT22;20538;51.528;9.942;2022-12-18T17:11:27;-2.00;99.90
34279;DHT22;20538;51.528;9.942;2022-12-18T17:13:54;-2.00;99.90
34279;DHT22;20538;51.528;9.942;2022-12-18T17:16:20;-2.00;99.90
34279;DHT22;20538;51.528;9.942;2022-12-18T17:18:49;-2.00;99.90
34279;DHT22;20538;51.528;9.942;2022-12-18T17:21:15;-1.90;99.90
34279;DHT22;20538;51.528;9.942;2022-12-18T17:23:47;-2.00;99.90
34279;DHT22;20538;51.528;9.942;2022-12-18T17:26:16;-2.00;99.90
34279;DHT22;20538;51.528;9.942;2022-12-18T17:28:41;-2.00;99.90
34279;DHT22;20538;51.528;9.942;2022-12-18T17:31:23;-2.00;99.90
34279;DHT22;20538;51.528;9.942;2022-12-18T17:33:51;-2.00;99.90
34279;DHT22;20538;51.528;9.942;2022-12-18T17:36:18;-1.90;99.90
34279;DHT22;20538;51.528;9.942;2022-12-18T17:39:00;-2.00;99.90
34279;DHT22;20538;51.528;9.942;2022-12-18T17:41:27;-1.90;99.90
34279;DHT22;20538;51.528;9.942;2022-12-18T17:43:58;-1.90;99.90
34279;DHT22;20538;51.528;9.942;2022-12-18T17:46:26;-1.90;99.90
34279;DHT22;20538;51.528;9.942;2022-12-18T17:48:54;-1.90;99.90
34279;DHT22;20538;51.528;9.942;2022-12-18T17:51:20;-1.90;99.90
34279;DHT22;20538;51.528;9.942;2022-12-18T17:53:46;-1.90;99.90
34279;DHT22;20538;51.528;9.942;2022-12-18T17:56:17;-1.90;99.90
34279;DHT22;20538;51.528;9.942;2022-12-18T17:58:46;-1.90;99.90
34279;DHT22;20538;51.528;9.942;2022-12-18T18:01:21;-1.90;99.90
34279;DHT22;20538;51.528;9.942;2022-12-18T18:03:47;-1.90;99.90
34279;DHT22;20538;51.528;9.942;2022-12-18T18:06:14;-1.80;99.90